Aeroporto :
LOGIN :

Iscrizione | Disclaimer

   EN    FR    IT 

 










Sommario :    VFR   VFR Marginale   IFR   IFR Intensivo   IFR Molto Intensivo
Visibilità : 
Base nubi : 
>= 8 km
>= 3000ft
5 / 8 km
1000 / 3000 ft
1500m / 5 km
500 / 1000 ft
800 / 1500m
200 / 500 ft
< 800m
< 200 ft
Simboli :   Temporali  Nebbia  Neve Forte  Precipitazioni Forti  Vento > 20 kt
SIGMETs :   Varie  Temporali  Ghiacco  Turbolenza  Onda orograficha  Ceneri Vulcaniche






- Altitudine del aeroporto : 177 ft
- Codice IATA : BRI


LIBD - Palese Macchie Bari

ULTIMO METAR :
  • 260550Z 30006KT CAVOK 18/15 Q1015

METARs OBSOLETI :
  • 260520Z 29005KT 270V330 CAVOK 18/15 Q1015
  • 260450Z 24004KT CAVOK 16/15 Q1015
  • 260420Z VRB02KT CAVOK 16/14 Q1015
  • 260350Z 26004KT CAVOK 17/13 Q1014
  • 260320Z 25007KT CAVOK 16/12 Q1014
  • 260250Z 25007KT CAVOK 17/11 Q1014
  • 260220Z 25005KT CAVOK 17/12 Q1014
  • 260150Z 24006KT CAVOK 16/12 Q1015
  • 260120Z 23005KT CAVOK 16/12 Q1015
  • 260050Z 25006KT CAVOK 16/12 Q1015

TAF TAF LIBD
Valido dal 26 a 06 ore il 27 a 06 ore UTC


260500Z 2606/2706 26006KT 9999 FEW040
BECMG 2606/2608 34011KT
TEMPO 2606/2609 RA
BECMG 2616/2618 VRB05KT



MetMap, La meteo Aeronautica in un colpo d'occhio ! - Copyright ORBIFLY Dicembre 2007 - Disclaimer

ORBIFLY MET'MAP TEAM :

Programmazione e sviluppo : Alexandra Zaïnal
Concezione : Baudouin d'Aumeries
Supporto tecnico e logistico : Manuel Goepfert
Aiuto : Marc-Olivier Méhu
Aiuto per la traduzione : Arnaldo La Scala




FONTI E CREDITI :

   NOAA